createdAt,value
2018-03-16T00:00:44.986Z,82.48
2018-03-16T00:03:13.283Z,82.60
2018-03-16T00:05:42.222Z,82.82
2018-03-16T00:08:10.534Z,82.93
2018-03-16T00:10:38.839Z,82.95
2018-03-16T00:13:07.137Z,82.70
2018-03-16T00:15:35.455Z,82.43
2018-03-16T00:18:03.793Z,82.42
2018-03-16T00:20:32.098Z,82.57
2018-03-16T00:23:00.384Z,82.25
2018-03-16T00:25:28.682Z,82.63
2018-03-16T00:27:56.978Z,81.88
2018-03-16T00:30:25.264Z,82.25
2018-03-16T00:32:53.570Z,82.69
2018-03-16T00:35:21.886Z,82.32
2018-03-16T00:37:50.194Z,82.08
2018-03-16T00:40:18.470Z,81.36
2018-03-16T00:42:46.761Z,80.33
2018-03-16T00:45:15.070Z,80.69
2018-03-16T00:47:43.376Z,80.12
2018-03-16T00:50:12.462Z,79.86
2018-03-16T00:52:40.771Z,80.19
2018-03-16T00:55:09.058Z,80.34
2018-03-16T00:57:37.366Z,81.14
2018-03-16T01:00:05.649Z,81.03
2018-03-16T01:02:33.954Z,81.05
2018-03-16T01:05:02.267Z,80.91
2018-03-16T01:07:30.577Z,80.58
2018-03-16T01:09:59.629Z,81.05
2018-03-16T01:12:27.929Z,81.13
2018-03-16T01:14:56.218Z,81.43
2018-03-16T01:17:24.524Z,81.39
2018-03-16T01:19:53.578Z,80.86
2018-03-16T01:22:21.889Z,81.21
2018-03-16T01:24:50.173Z,81.39
2018-03-16T01:27:18.490Z,81.46
2018-03-16T01:29:46.784Z,82.09
2018-03-16T01:32:15.855Z,83.02
2018-03-16T01:34:44.157Z,83.74
2018-03-16T01:37:12.458Z,83.35
2018-03-16T01:39:40.768Z,83.92
2018-03-16T01:42:09.872Z,83.83
2018-03-16T01:44:39.672Z,84.88
2018-03-16T01:47:07.962Z,85.74
2018-03-16T01:49:36.262Z,86.16
2018-03-16T01:52:04.551Z,86.98
2018-03-16T01:54:32.880Z,87.02
2018-03-16T01:57:01.174Z,87.34
2018-03-16T01:59:29.469Z,88.25
2018-03-16T02:01:57.772Z,87.24
2018-03-16T02:04:26.090Z,87.66
2018-03-16T02:06:54.374Z,87.90
2018-03-16T02:09:22.669Z,88.25
2018-03-16T02:11:50.966Z,88.70
2018-03-16T02:14:19.270Z,88.95
2018-03-16T02:16:48.318Z,89.10
2018-03-16T02:19:16.627Z,88.05
2018-03-16T02:21:44.938Z,88.71
2018-03-16T02:24:13.233Z,88.65
2018-03-16T02:26:42.299Z,88.42
2018-03-16T02:29:10.597Z,89.10
2018-03-16T02:31:38.879Z,87.81
2018-03-16T02:34:07.186Z,87.54
2018-03-16T02:36:35.508Z,86.98
2018-03-16T02:39:05.315Z,86.75
2018-03-16T02:41:33.669Z,86.33
2018-03-16T02:44:03.131Z,86.46
2018-03-16T02:46:31.508Z,86.40
2018-03-16T02:48:59.839Z,86.35
2018-03-16T02:51:28.126Z,86.60
2018-03-16T02:53:56.442Z,86.34
2018-03-16T02:56:25.501Z,86.28
2018-03-16T02:58:54.959Z,86.46
2018-03-16T03:01:23.260Z,86.14
2018-03-16T03:03:51.562Z,85.86
2018-03-16T03:06:19.873Z,85.75
2018-03-16T03:08:48.183Z,86.36
2018-03-16T03:11:17.628Z,86.42
2018-03-16T03:13:45.929Z,86.89
2018-03-16T03:16:14.228Z,87.27
2018-03-16T03:18:42.505Z,87.39
2018-03-16T03:21:10.802Z,86.96
2018-03-16T03:23:39.077Z,87.16
2018-03-16T03:26:07.395Z,86.77
2018-03-16T03:28:35.677Z,86.68
2018-03-16T03:31:04.033Z,85.66
2018-03-16T03:33:32.351Z,85.49
2018-03-16T03:36:00.651Z,85.05
2018-03-16T03:38:28.933Z,85.28
2018-03-16T03:40:57.225Z,85.24
2018-03-16T03:43:25.510Z,85.39
2018-03-16T03:45:53.819Z,85.88
2018-03-16T03:48:22.117Z,86.14
2018-03-16T03:50:50.413Z,86.62
2018-03-16T03:53:18.702Z,86.98
2018-03-16T03:55:47.006Z,87.62
2018-03-16T03:58:16.062Z,87.71
2018-03-16T04:00:44.366Z,87.76
2018-03-16T04:03:12.666Z,88.35
2018-03-16T04:05:41.185Z,88.53
2018-03-16T04:08:10.528Z,88.57
2018-03-16T04:10:39.589Z,87.89
2018-03-16T04:13:07.876Z,88.35
2018-03-16T04:15:36.186Z,87.98
2018-03-16T04:18:04.481Z,88.12
2018-03-16T04:20:32.782Z,88.00
2018-03-16T04:23:01.078Z,87.89
2018-03-16T04:25:29.398Z,88.02
2018-03-16T04:27:58.450Z,87.15
2018-03-16T04:30:27.528Z,86.26
2018-03-16T04:32:55.818Z,86.21
2018-03-16T04:35:24.122Z,85.54
2018-03-16T04:37:52.418Z,85.22
2018-03-16T04:40:20.737Z,85.22
2018-03-16T04:42:49.042Z,85.62
2018-03-16T04:45:17.331Z,85.88
2018-03-16T04:47:45.630Z,86.19
2018-03-16T04:50:14.682Z,86.08
2018-03-16T04:52:42.982Z,86.27
2018-03-16T04:55:11.262Z,86.36
2018-03-16T04:57:39.561Z,86.47
2018-03-16T05:00:07.920Z,85.78
2018-03-16T05:02:36.245Z,85.96
2018-03-16T05:05:04.547Z,85.88
2018-03-16T05:07:32.843Z,85.63
2018-03-16T05:10:01.121Z,85.96
2018-03-16T05:12:29.439Z,85.07
2018-03-16T05:14:58.491Z,85.31
2018-03-16T05:17:27.564Z,85.74
2018-03-16T05:19:56.722Z,85.73
2018-03-16T05:22:25.026Z,85.41
2018-03-16T05:24:53.313Z,84.39
2018-03-16T05:27:21.610Z,84.49
2018-03-16T05:29:49.900Z,83.80
2018-03-16T05:32:18.219Z,83.22
2018-03-16T05:34:47.282Z,82.97
2018-03-16T05:37:15.594Z,82.63
2018-03-16T05:39:43.895Z,82.42
2018-03-16T05:42:12.963Z,82.19
2018-03-16T05:44:41.273Z,81.74
2018-03-16T05:47:09.575Z,81.74
2018-03-16T05:49:37.857Z,81.65
2018-03-16T05:52:06.317Z,81.29
2018-03-16T05:54:34.679Z,80.93
2018-03-16T05:57:04.021Z,81.28
2018-03-16T05:59:32.339Z,80.66
2018-03-16T06:02:00.781Z,80.31
2018-03-16T06:04:29.116Z,80.20
2018-03-16T06:06:57.436Z,79.15
2018-03-16T06:09:26.834Z,78.59
2018-03-16T06:11:55.243Z,77.75
2018-03-16T06:14:24.841Z,76.82
2018-03-16T06:16:53.387Z,76.10
2018-03-16T06:19:22.124Z,75.54
2018-03-16T06:21:50.670Z,75.36
2018-03-16T06:24:19.318Z,75.22
2018-03-16T06:26:47.751Z,74.90
2018-03-16T06:29:16.953Z,75.06
2018-03-16T06:31:46.170Z,73.85
2018-03-16T06:34:15.330Z,74.56
2018-03-16T06:36:44.849Z,74.06
2018-03-16T06:39:13.383Z,73.79
2018-03-16T06:41:42.559Z,73.76
2018-03-16T06:44:11.658Z,73.70
2018-03-16T06:46:40.176Z,73.53
2018-03-16T06:49:08.566Z,73.96
2018-03-16T06:51:37.443Z,73.32
2018-03-16T06:54:05.813Z,73.00
2018-03-16T06:56:34.140Z,72.87
2018-03-16T06:59:02.567Z,73.36
2018-03-16T07:01:31.174Z,72.68
2018-03-16T07:04:00.411Z,73.12
2018-03-16T07:06:28.709Z,73.77
2018-03-16T07:08:57.046Z,73.42
2018-03-16T07:11:25.380Z,74.17
2018-03-16T07:13:54.415Z,74.02
2018-03-16T07:16:22.723Z,74.08
2018-03-16T07:18:51.032Z,73.69
2018-03-16T07:21:21.055Z,72.73
2018-03-16T07:23:49.404Z,72.88
2018-03-16T07:26:17.735Z,71.34
2018-03-16T07:28:46.821Z,72.05
2018-03-16T07:31:16.627Z,72.37
2018-03-16T07:33:44.957Z,71.99
2018-03-16T07:36:13.254Z,72.16
2018-03-16T07:38:42.432Z,71.77
2018-03-16T07:41:11.977Z,72.71
2018-03-16T07:43:40.264Z,72.36
2018-03-16T07:46:14.697Z,72.86
2018-03-16T07:48:42.981Z,72.84
2018-03-16T07:51:12.071Z,72.21
2018-03-16T07:53:40.370Z,71.90
2018-03-16T07:56:08.699Z,71.19
2018-03-16T07:58:38.495Z,71.46
2018-03-16T08:01:06.834Z,70.36
2018-03-16T08:03:35.149Z,70.19
2018-03-16T08:06:05.388Z,70.65
2018-03-16T08:08:33.675Z,70.61
2018-03-16T08:11:01.989Z,70.42
2018-03-16T08:13:30.283Z,69.97
2018-03-16T08:15:58.632Z,69.30
2018-03-16T08:18:26.922Z,67.86
2018-03-16T08:20:55.256Z,66.79
2018-03-16T08:23:23.558Z,66.16
2018-03-16T08:25:51.874Z,65.17
2018-03-16T08:28:20.180Z,67.21
2018-03-16T08:30:48.514Z,65.44
2018-03-16T08:33:16.877Z,65.92
2018-03-16T08:35:45.990Z,66.99
2018-03-16T08:38:14.284Z,67.34
2018-03-16T08:40:42.618Z,64.70
2018-03-16T08:43:10.953Z,64.87
2018-03-16T08:45:40.078Z,64.05
2018-03-16T08:48:08.347Z,63.52
2018-03-16T08:50:36.766Z,62.78
2018-03-16T08:53:05.923Z,61.56
2018-03-16T08:55:34.241Z,60.90
2018-03-16T08:58:02.612Z,60.56
2018-03-16T09:00:30.930Z,60.53
2018-03-16T09:02:59.244Z,61.77
2018-03-16T09:05:27.576Z,61.67
2018-03-16T09:07:55.905Z,61.57
2018-03-16T09:10:24.211Z,62.62
2018-03-16T09:12:52.523Z,61.83
2018-03-16T09:15:22.206Z,61.04
2018-03-16T09:17:50.515Z,61.75
2018-03-16T09:20:18.863Z,62.34
2018-03-16T09:22:47.195Z,61.65
2018-03-16T09:25:15.501Z,61.21
2018-03-16T09:27:44.955Z,61.99
2018-03-16T09:30:13.267Z,61.75
2018-03-16T09:32:41.589Z,62.08
2018-03-16T09:35:10.650Z,62.75
2018-03-16T09:37:39.913Z,61.30
2018-03-16T09:40:09.002Z,61.45
2018-03-16T09:42:37.314Z,61.29
2018-03-16T09:45:06.383Z,60.57
2018-03-16T09:47:34.698Z,61.87
2018-03-16T09:50:03.767Z,59.73
2018-03-16T09:52:32.100Z,59.22
2018-03-16T09:55:18.758Z,58.09
2018-03-16T09:57:47.087Z,57.57
2018-03-16T10:00:15.403Z,58.10
2018-03-16T10:02:44.493Z,59.57
2018-03-16T10:05:12.791Z,58.00
2018-03-16T10:07:41.107Z,59.04
2018-03-16T10:10:09.414Z,59.98
2018-03-16T10:12:37.709Z,58.24
2018-03-16T10:15:06.038Z,58.89
2018-03-16T10:17:34.362Z,57.98
2018-03-16T10:20:03.426Z,57.50
2018-03-16T10:22:31.775Z,56.41
2018-03-16T10:25:00.078Z,56.26
2018-03-16T10:27:28.399Z,55.69
2018-03-16T10:29:57.498Z,54.62
2018-03-16T10:32:25.837Z,53.87
2018-03-16T10:34:54.900Z,54.45
2018-03-16T10:37:23.213Z,54.60
2018-03-16T10:39:51.521Z,55.17
2018-03-16T10:42:20.692Z,52.19
2018-03-16T10:44:48.997Z,51.23
2018-03-16T10:47:18.115Z,50.23
2018-03-16T10:49:46.438Z,50.47
2018-03-16T10:52:15.039Z,48.53
2018-03-16T10:54:43.604Z,47.93
2018-03-16T10:57:12.726Z,47.47
2018-03-16T10:59:41.997Z,47.04
2018-03-16T11:02:15.906Z,47.59
2018-03-16T11:04:45.685Z,46.50
2018-03-16T11:07:18.468Z,48.32
2018-03-16T11:09:47.892Z,47.74
2018-03-16T11:12:18.592Z,48.74
2018-03-16T11:14:47.086Z,48.68
2018-03-16T11:17:15.882Z,50.45
2018-03-16T11:19:48.686Z,49.82
2018-03-16T11:22:17.145Z,50.71
2018-03-16T11:24:45.562Z,50.99
2018-03-16T11:27:14.004Z,50.45
2018-03-16T11:29:43.218Z,51.73
2018-03-16T11:32:11.614Z,48.18
2018-03-16T11:34:40.100Z,48.55
2018-03-16T11:37:09.229Z,47.21
2018-03-16T11:39:38.528Z,47.34
2018-03-16T11:44:41.723Z,45.48
2018-03-16T11:47:10.131Z,46.96
2018-03-16T11:49:38.582Z,47.39
2018-03-16T11:52:06.998Z,45.74
2018-03-16T11:54:35.782Z,47.39
2018-03-16T11:57:04.150Z,47.84
2018-03-16T11:59:32.489Z,51.01
2018-03-16T12:02:00.888Z,51.07
2018-03-16T12:04:29.481Z,51.33
2018-03-16T12:06:58.232Z,55.47
2018-03-16T12:09:26.783Z,58.89
2018-03-16T12:11:55.913Z,60.23
2018-03-16T12:14:25.596Z,60.26
2018-03-16T12:16:54.280Z,58.47
2018-03-16T12:19:23.396Z,59.78
2018-03-16T12:21:52.124Z,55.69
2018-03-16T12:24:20.483Z,57.76
2018-03-16T12:26:48.990Z,57.84
2018-03-16T12:29:17.768Z,56.52
2018-03-16T12:31:46.198Z,56.25
2018-03-16T12:34:16.064Z,56.88
2018-03-16T12:36:44.488Z,58.99
2018-03-16T12:39:13.148Z,61.42
2018-03-16T12:41:43.085Z,62.51
2018-03-16T12:44:11.665Z,58.22
2018-03-16T12:46:40.314Z,58.00
2018-03-16T12:49:08.824Z,58.60
2018-03-16T12:51:42.191Z,56.89
2018-03-16T12:54:06.094Z,54.24
2018-03-16T12:56:36.199Z,54.70
2018-03-16T12:59:04.824Z,52.34
2018-03-16T13:01:33.286Z,53.05
2018-03-16T13:04:01.915Z,53.38
2018-03-16T13:06:30.322Z,50.94
2018-03-16T13:08:58.641Z,49.93
2018-03-16T13:11:27.827Z,49.02
2018-03-16T13:13:56.245Z,49.98
2018-03-16T13:16:25.435Z,50.09
2018-03-16T13:21:27.530Z,47.10
2018-03-16T13:23:56.164Z,47.62
2018-03-16T13:26:25.426Z,43.90
2018-03-16T13:28:53.754Z,43.40
2018-03-16T13:31:23.522Z,41.49
2018-03-16T13:33:51.979Z,40.81
2018-03-16T13:36:21.532Z,41.48
2018-03-16T13:38:50.037Z,44.92
2018-03-16T13:41:18.553Z,43.85
2018-03-16T13:43:47.258Z,43.29
2018-03-16T13:46:15.804Z,40.96
2018-03-16T13:48:44.412Z,41.88
2018-03-16T13:51:13.096Z,41.79
2018-03-16T13:53:41.532Z,40.84
2018-03-16T13:56:11.217Z,40.33
2018-03-16T13:58:40.053Z,41.60
2018-03-16T14:01:08.406Z,41.38
2018-03-16T14:03:37.135Z,40.92
2018-03-16T14:06:05.648Z,40.47
2018-03-16T14:08:34.070Z,41.16
2018-03-16T14:11:03.963Z,41.19
2018-03-16T14:13:32.337Z,41.05
2018-03-16T14:16:00.947Z,40.79
2018-03-16T14:18:29.573Z,40.72
2018-03-16T14:20:59.554Z,41.58
2018-03-16T14:23:28.843Z,41.94
2018-03-16T14:25:58.018Z,41.48
2018-03-16T14:28:26.894Z,42.07
2018-03-16T14:30:55.583Z,40.90
2018-03-16T14:33:24.550Z,40.20
2018-03-16T14:35:54.475Z,40.51
2018-03-16T14:38:24.042Z,41.99
2018-03-16T14:40:52.600Z,40.42
2018-03-16T14:43:21.088Z,41.28
2018-03-16T14:45:50.426Z,41.17
2018-03-16T14:48:18.738Z,42.27
2018-03-16T14:50:47.029Z,41.92
2018-03-16T14:53:15.347Z,42.00
2018-03-16T14:55:44.420Z,43.09
2018-03-16T14:58:12.742Z,42.38
2018-03-16T15:00:41.056Z,42.18
2018-03-16T15:03:09.371Z,42.00
2018-03-16T15:05:37.675Z,41.44
2018-03-16T15:08:06.767Z,42.87
2018-03-16T15:10:35.072Z,41.85
2018-03-16T15:13:04.188Z,41.54
2018-03-16T15:15:32.483Z,40.53
2018-03-16T15:18:00.805Z,39.21
2018-03-16T15:20:29.907Z,38.94
2018-03-16T15:22:59.982Z,38.92
2018-03-16T15:25:28.327Z,39.65
2018-03-16T15:27:56.615Z,39.67
2018-03-16T15:30:24.873Z,39.80
2018-03-16T15:32:53.361Z,39.29
2018-03-16T15:35:21.888Z,39.72
2018-03-16T15:37:51.202Z,39.96
2018-03-16T15:40:19.823Z,40.04
2018-03-16T15:42:48.305Z,40.37
2018-03-16T15:45:17.400Z,40.34
2018-03-16T15:47:45.649Z,40.78
2018-03-16T15:52:38.217Z,41.87
2018-03-16T15:55:06.502Z,42.10
2018-03-16T15:57:34.765Z,43.29
2018-03-16T16:00:03.850Z,43.22
2018-03-16T16:02:32.154Z,43.55
2018-03-16T16:05:00.478Z,42.99
2018-03-16T16:07:28.836Z,43.06
2018-03-16T16:09:57.275Z,42.89
2018-03-16T16:12:25.867Z,43.35
2018-03-16T16:14:54.673Z,44.49
2018-03-16T16:17:22.990Z,44.61
2018-03-16T16:19:51.296Z,45.50
2018-03-16T16:22:19.573Z,45.13
2018-03-16T16:24:47.852Z,45.14
2018-03-16T16:27:16.502Z,45.71
2018-03-16T16:29:45.009Z,45.09
2018-03-16T16:32:15.357Z,45.37
2018-03-16T16:34:43.777Z,46.43
2018-03-16T16:37:12.182Z,46.08
2018-03-16T16:39:40.585Z,46.37
2018-03-16T16:42:09.855Z,46.23
2018-03-16T16:44:39.801Z,46.31
2018-03-16T16:47:08.464Z,45.94
2018-03-16T16:49:37.149Z,45.63
2018-03-16T16:52:05.550Z,45.73
2018-03-16T16:54:34.101Z,46.01
2018-03-16T16:57:02.588Z,46.04
2018-03-16T16:59:30.925Z,45.68
2018-03-16T17:02:00.557Z,45.36
2018-03-16T17:04:29.327Z,45.92
2018-03-16T17:06:58.586Z,46.26
2018-03-16T17:09:27.258Z,46.88
2018-03-16T17:11:55.929Z,47.22
2018-03-16T17:14:25.293Z,48.44
2018-03-16T17:16:53.766Z,48.97
2018-03-16T17:19:22.547Z,49.95
2018-03-16T17:21:52.097Z,50.85
2018-03-16T17:24:21.449Z,51.29
2018-03-16T17:26:50.221Z,52.09
2018-03-16T17:29:18.730Z,52.40
2018-03-16T17:31:47.145Z,52.87
2018-03-16T17:34:15.692Z,53.91
2018-03-16T17:36:44.225Z,54.37
2018-03-16T17:39:12.720Z,55.05
2018-03-16T17:41:41.476Z,55.52
2018-03-16T17:44:09.889Z,55.67
2018-03-16T17:46:38.434Z,56.24
2018-03-16T17:49:07.511Z,56.58
2018-03-16T17:51:36.744Z,57.29
2018-03-16T17:54:06.040Z,57.93
2018-03-16T17:56:35.900Z,58.42
2018-03-16T17:59:05.356Z,58.58
2018-03-16T18:01:33.991Z,59.52
2018-03-16T18:04:02.490Z,60.24
2018-03-16T18:06:31.213Z,60.13
2018-03-16T18:09:01.102Z,60.59
2018-03-16T18:11:29.781Z,60.42
2018-03-16T18:13:58.665Z,61.13
2018-03-16T18:16:27.411Z,61.71
2018-03-16T18:18:57.231Z,62.08
2018-03-16T18:21:26.478Z,62.69
2018-03-16T18:23:55.183Z,62.80
2018-03-16T18:26:24.619Z,62.17
2018-03-16T18:28:53.147Z,62.92
2018-03-16T18:31:21.493Z,63.56
2018-03-16T18:33:50.581Z,63.93
2018-03-16T18:36:19.726Z,64.24
2018-03-16T18:38:48.657Z,63.99
2018-03-16T18:41:17.130Z,63.82
2018-03-16T18:43:45.933Z,63.66
2018-03-16T18:46:14.965Z,62.79
2018-03-16T18:48:43.738Z,62.37
2018-03-16T18:51:12.233Z,62.53
2018-03-16T18:53:40.656Z,62.61
2018-03-16T18:56:09.206Z,62.89
2018-03-16T18:58:37.879Z,62.85
2018-03-16T19:01:07.058Z,62.88
2018-03-16T19:03:35.863Z,62.65
2018-03-16T19:06:04.188Z,62.87
2018-03-16T19:08:33.476Z,63.03
2018-03-16T19:11:01.750Z,63.52
2018-03-16T19:13:30.502Z,63.92
2018-03-16T19:16:00.008Z,63.79
2018-03-16T19:18:29.868Z,64.14
2018-03-16T19:20:58.296Z,63.87
2018-03-16T19:23:26.684Z,64.42
2018-03-16T19:25:55.013Z,64.43
2018-03-16T19:28:23.630Z,64.79
2018-03-16T19:30:51.981Z,65.18
2018-03-16T19:33:21.690Z,65.26
2018-03-16T19:35:50.009Z,65.78
2018-03-16T19:38:19.169Z,65.43
2018-03-16T19:40:47.529Z,66.73
2018-03-16T19:43:15.808Z,67.65
2018-03-16T19:45:44.273Z,67.88
2018-03-16T19:48:12.582Z,67.87
2018-03-16T19:50:41.655Z,68.49
2018-03-16T19:53:09.939Z,68.96
2018-03-16T19:55:38.237Z,68.89
2018-03-16T19:58:06.484Z,69.33
2018-03-16T20:00:34.764Z,69.39
2018-03-16T20:03:03.029Z,69.57
2018-03-16T20:05:33.214Z,69.90
2018-03-16T20:08:01.478Z,70.03
2018-03-16T20:10:29.788Z,70.78
2018-03-16T20:12:58.102Z,71.19
2018-03-16T20:15:26.445Z,71.69
2018-03-16T20:17:54.752Z,71.84
2018-03-16T20:20:23.041Z,72.36
2018-03-16T20:22:51.332Z,72.35
2018-03-16T20:25:19.586Z,72.92
2018-03-16T20:27:48.710Z,72.93
2018-03-16T20:30:16.975Z,73.12
2018-03-16T20:32:46.019Z,73.52
2018-03-16T20:35:14.282Z,74.81
2018-03-16T20:37:49.189Z,75.14
2018-03-16T20:40:17.465Z,74.71
2018-03-16T20:42:45.758Z,74.98
2018-03-16T20:45:14.057Z,75.19
2018-03-16T20:47:42.330Z,75.57
2018-03-16T20:50:10.681Z,75.45
2018-03-16T20:52:38.885Z,75.39
2018-03-16T20:55:07.157Z,75.71
2018-03-16T20:57:36.229Z,76.02
2018-03-16T21:00:04.486Z,76.66
2018-03-16T21:02:32.753Z,76.51
2018-03-16T21:05:01.002Z,77.18
2018-03-16T21:07:29.313Z,76.18
2018-03-16T21:09:58.419Z,76.53
2018-03-16T21:12:27.479Z,76.37
2018-03-16T21:14:57.131Z,77.19
2018-03-16T21:17:26.292Z,77.26
2018-03-16T21:19:54.673Z,77.86
2018-03-16T21:22:22.961Z,78.66
2018-03-16T21:24:51.263Z,78.32
2018-03-16T21:27:19.621Z,78.15
2018-03-16T21:29:48.653Z,78.76
2018-03-16T21:32:16.916Z,78.39
2018-03-16T21:34:46.748Z,79.33
2018-03-16T21:37:15.040Z,79.96
2018-03-16T21:39:43.341Z,80.62
2018-03-16T21:42:11.634Z,81.08
2018-03-16T21:44:39.880Z,81.18
2018-03-16T21:47:08.203Z,81.42
2018-03-16T21:49:36.485Z,81.81
2018-03-16T21:52:05.529Z,82.01
2018-03-16T21:54:33.776Z,82.03
2018-03-16T21:57:03.573Z,82.47
2018-03-16T21:59:31.831Z,83.31
2018-03-16T22:02:00.133Z,82.47
2018-03-16T22:04:28.418Z,82.80
2018-03-16T22:06:57.544Z,83.80
2018-03-16T22:09:25.993Z,83.87
2018-03-16T22:11:55.435Z,83.79
2018-03-16T22:14:24.608Z,84.24
2018-03-16T22:16:52.906Z,84.45
2018-03-16T22:19:21.192Z,84.19
2018-03-16T22:21:49.478Z,84.22
2018-03-16T22:24:17.749Z,84.52
2018-03-16T22:26:46.780Z,85.41
2018-03-16T22:29:15.064Z,85.27
2018-03-16T22:31:43.337Z,85.03
2018-03-16T22:34:12.370Z,85.29
2018-03-16T22:36:40.660Z,84.94
2018-03-16T22:39:08.944Z,85.49
2018-03-16T22:41:37.205Z,86.48
2018-03-16T22:44:06.253Z,85.69
2018-03-16T22:46:34.521Z,86.37
2018-03-16T22:49:02.801Z,86.00
2018-03-16T22:51:31.851Z,86.52
2018-03-16T22:54:00.121Z,86.86
2018-03-16T22:56:28.536Z,86.67
2018-03-16T22:58:57.012Z,86.27
2018-03-16T23:01:25.402Z,87.48
2018-03-16T23:03:53.787Z,87.40
2018-03-16T23:06:22.046Z,87.81
2018-03-16T23:08:51.072Z,87.77
2018-03-16T23:11:20.080Z,87.39
2018-03-16T23:13:48.348Z,88.82
2018-03-16T23:16:17.410Z,88.67
2018-03-16T23:18:45.721Z,89.18
2018-03-16T23:21:13.976Z,88.89
2018-03-16T23:23:42.254Z,89.04
2018-03-16T23:26:11.648Z,88.71
2018-03-16T23:28:39.934Z,89.08
2018-03-16T23:31:08.939Z,89.12
2018-03-16T23:33:37.964Z,89.71
2018-03-16T23:36:06.229Z,89.11
2018-03-16T23:38:35.254Z,89.58
2018-03-16T23:41:03.521Z,88.97
2018-03-16T23:43:32.564Z,88.65
2018-03-16T23:46:00.883Z,89.50
2018-03-16T23:48:29.209Z,89.87
2018-03-16T23:50:57.564Z,90.48
2018-03-16T23:53:26.067Z,90.62
2018-03-16T23:55:55.766Z,90.79
2018-03-16T23:58:24.336Z,90.94
